Terminal Aerodrome Forecast
Issued by NWS

Home | Current Version | Previous Version | Text Only | Print | Product List | Glossary On
Versions: 1 2 3 4 5 6 7 8 9 10 11 12 13 14 15 16 17 18 19 20 21 22 23
000
FTUS46 KLOX 062320
TAFSBP
TAF
KSBP 062320Z 0700/0724 30015KT P6SM SKC
     FM070200 31010KT P6SM SKC
     FM070600 30006KT P6SM OVC008
     FM071400 VRB03KT P6SM BKN010
     FM071700 29008KT P6SM SKC
     FM072000 31015KT P6SM SKC=

USA.gov is the U.S. government's official web portal to all federal, state and local government web resources and services.